createdAt,value
2019-05-16T00:01:45.278Z,57.47
2019-05-16T00:04:14.998Z,57.85
2019-05-16T00:06:44.576Z,57.66
2019-05-16T00:09:18.341Z,57.97
2019-05-16T00:11:48.877Z,58.25
2019-05-16T00:14:18.875Z,58.76
2019-05-16T00:16:48.568Z,58.93
2019-05-16T00:19:18.967Z,59.48
2019-05-16T00:21:48.874Z,59.64
2019-05-16T00:24:18.874Z,59.53
2019-05-16T00:26:48.898Z,59.89
2019-05-16T00:29:18.541Z,59.98
2019-05-16T00:31:48.757Z,60.06
2019-05-16T00:34:20.264Z,60.25
2019-05-16T00:36:49.727Z,60.44
2019-05-16T00:39:19.456Z,60.75
2019-05-16T00:41:50.340Z,60.94
2019-05-16T00:44:20.022Z,61.33
2019-05-16T00:46:50.548Z,60.93
2019-05-16T00:49:20.744Z,61.42
2019-05-16T00:51:50.341Z,61.25
2019-05-16T00:54:27.862Z,61.55
2019-05-16T00:56:57.851Z,62.40
2019-05-16T00:59:28.859Z,62.65
2019-05-16T01:01:58.857Z,62.76
2019-05-16T01:04:28.865Z,62.48
2019-05-16T01:07:01.727Z,62.17
2019-05-16T01:09:33.641Z,62.26
2019-05-16T01:12:03.567Z,62.26
2019-05-16T01:14:33.695Z,62.55
2019-05-16T01:17:08.737Z,62.38
2019-05-16T01:19:49.571Z,62.48
2019-05-16T01:22:20.607Z,62.96
2019-05-16T01:24:59.554Z,63.91
2019-05-16T01:27:40.735Z,64.29
2019-05-16T01:30:14.449Z,64.72
2019-05-16T01:32:44.359Z,64.78
2019-05-16T01:35:14.092Z,64.91
2019-05-16T01:37:43.819Z,64.92
2019-05-16T01:40:14.371Z,65.19
2019-05-16T01:42:44.010Z,65.42
2019-05-16T01:45:14.529Z,65.89
2019-05-16T01:47:43.978Z,65.87
2019-05-16T01:50:13.769Z,66.04
2019-05-16T01:52:43.334Z,65.48
2019-05-16T01:55:12.899Z,65.47
2019-05-16T01:57:42.529Z,65.50
2019-05-16T02:00:14.868Z,65.56
2019-05-16T02:02:45.388Z,65.59
2019-05-16T02:05:15.386Z,65.47
2019-05-16T02:07:47.854Z,65.50
2019-05-16T02:10:18.255Z,65.74
2019-05-16T02:12:49.053Z,65.52
2019-05-16T02:15:18.773Z,65.51
2019-05-16T02:17:48.917Z,65.08
2019-05-16T02:20:19.095Z,64.84
2019-05-16T02:22:49.188Z,64.91
2019-05-16T02:25:21.088Z,65.05
2019-05-16T02:27:53.107Z,64.75
2019-05-16T02:30:22.960Z,64.96
2019-05-16T02:32:52.717Z,65.23
2019-05-16T02:35:22.294Z,65.42
2019-05-16T02:37:55.244Z,66.20
2019-05-16T02:40:24.636Z,66.83
2019-05-16T02:42:56.120Z,67.71
2019-05-16T02:45:25.604Z,68.34
2019-05-16T02:47:55.177Z,70.06
2019-05-16T02:50:26.055Z,70.84
2019-05-16T02:52:56.920Z,71.45
2019-05-16T02:55:26.589Z,71.95
2019-05-16T02:57:56.281Z,72.87
2019-05-16T03:00:42.589Z,74.15
2019-05-16T03:03:11.916Z,73.78
2019-05-16T03:05:44.020Z,74.95
2019-05-16T03:08:14.834Z,75.78
2019-05-16T03:10:45.635Z,75.79
2019-05-16T03:13:15.830Z,77.08
2019-05-16T03:15:50.828Z,77.85
2019-05-16T03:18:23.572Z,77.62
2019-05-16T03:20:55.437Z,78.74
2019-05-16T03:23:25.067Z,79.68
2019-05-16T03:25:55.118Z,79.42
2019-05-16T03:28:24.801Z,80.43
2019-05-16T03:30:55.195Z,80.95
2019-05-16T03:33:38.956Z,81.37
2019-05-16T03:36:04.079Z,81.74
2019-05-16T03:38:30.942Z,81.97
2019-05-16T03:41:01.106Z,82.06
2019-05-16T03:43:31.111Z,81.98
2019-05-16T03:46:02.722Z,82.09
2019-05-16T03:48:33.165Z,82.63
2019-05-16T03:51:02.735Z,82.19
2019-05-16T03:53:32.232Z,82.57
2019-05-16T03:56:02.115Z,83.60
2019-05-16T03:58:32.029Z,83.93
2019-05-16T04:01:02.536Z,83.85
2019-05-16T04:03:33.393Z,83.94
2019-05-16T04:06:03.298Z,84.53
2019-05-16T04:08:34.115Z,84.50
2019-05-16T04:11:03.624Z,84.57
2019-05-16T04:13:33.335Z,85.04
2019-05-16T04:16:03.071Z,85.32
2019-05-16T04:18:33.020Z,85.64
2019-05-16T04:21:02.687Z,85.84
2019-05-16T04:23:32.207Z,85.81
2019-05-16T04:26:02.280Z,86.19
2019-05-16T04:28:32.201Z,86.10
2019-05-16T04:31:02.427Z,86.47
2019-05-16T04:33:32.256Z,86.35
2019-05-16T04:36:02.278Z,86.41
2019-05-16T04:38:40.861Z,86.88
2019-05-16T04:41:03.429Z,87.09
2019-05-16T04:43:33.340Z,87.07
2019-05-16T04:46:03.108Z,87.63
2019-05-16T04:48:33.391Z,87.91
2019-05-16T04:51:02.964Z,88.04
2019-05-16T04:53:32.731Z,88.37
2019-05-16T04:56:02.391Z,88.14
2019-05-16T04:58:32.022Z,88.42
2019-05-16T05:01:02.092Z,87.90
2019-05-16T05:03:32.007Z,88.07
2019-05-16T05:06:02.119Z,88.36
2019-05-16T05:08:48.558Z,88.26
2019-05-16T05:11:02.982Z,88.61
2019-05-16T05:13:41.090Z,89.03
2019-05-16T05:16:10.644Z,89.37
2019-05-16T05:18:41.046Z,89.44
2019-05-16T05:21:11.699Z,90.05
2019-05-16T05:23:41.284Z,90.17
2019-05-16T05:26:11.289Z,90.40
2019-05-16T05:28:40.753Z,90.44
2019-05-16T05:31:11.678Z,90.28
2019-05-16T05:33:42.696Z,90.42
2019-05-16T05:36:12.724Z,90.56
2019-05-16T05:38:42.241Z,90.38
2019-05-16T05:41:11.980Z,90.55
2019-05-16T05:43:41.634Z,90.56
2019-05-16T05:46:11.360Z,90.57
2019-05-16T05:48:41.410Z,90.51
2019-05-16T05:51:11.461Z,90.59
2019-05-16T05:53:41.853Z,90.68
2019-05-16T05:56:11.661Z,90.69
2019-05-16T05:58:42.889Z,90.58
2019-05-16T06:01:12.410Z,90.70
2019-05-16T06:03:42.107Z,90.71
2019-05-16T06:06:11.794Z,90.52
2019-05-16T06:08:41.269Z,90.55
2019-05-16T06:11:10.986Z,90.73
2019-05-16T06:13:41.833Z,90.64
2019-05-16T06:16:11.987Z,90.92
2019-05-16T06:18:41.538Z,90.66
2019-05-16T06:21:11.886Z,90.65
2019-05-16T06:23:41.600Z,90.47
2019-05-16T06:26:12.386Z,90.44
2019-05-16T06:28:42.996Z,90.63
2019-05-16T06:31:14.285Z,90.53
2019-05-16T06:33:44.053Z,90.42
2019-05-16T06:36:14.961Z,90.44
2019-05-16T06:38:45.131Z,90.65
2019-05-16T06:41:15.616Z,90.54
2019-05-16T06:43:45.225Z,90.41
2019-05-16T06:46:14.711Z,90.38
2019-05-16T06:48:45.700Z,90.31
2019-05-16T06:51:16.601Z,90.30
2019-05-16T06:53:46.554Z,90.50
2019-05-16T06:56:19.998Z,90.09
2019-05-16T06:58:51.883Z,89.93
2019-05-16T07:01:21.700Z,90.17
2019-05-16T07:03:54.989Z,90.06
2019-05-16T07:06:47.633Z,89.93
2019-05-16T07:08:56.735Z,89.58
2019-05-16T07:11:30.494Z,89.30
2019-05-16T07:14:01.239Z,89.70
2019-05-16T07:16:31.994Z,89.40
2019-05-16T07:19:01.754Z,89.60
2019-05-16T07:21:34.294Z,89.47
2019-05-16T07:24:30.569Z,89.83
2019-05-16T07:27:01.947Z,90.09
2019-05-16T07:29:31.974Z,89.76
2019-05-16T07:32:01.944Z,89.85
2019-05-16T07:34:32.553Z,89.67
2019-05-16T07:37:02.785Z,89.97
2019-05-16T07:39:34.483Z,90.53
2019-05-16T07:42:04.270Z,90.26
2019-05-16T07:44:35.954Z,89.93
2019-05-16T07:47:05.896Z,90.07
2019-05-16T07:49:40.698Z,89.63
2019-05-16T07:52:11.165Z,89.98
2019-05-16T07:54:41.837Z,89.84
2019-05-16T07:57:19.526Z,89.62
2019-05-16T07:59:45.582Z,89.73
2019-05-16T08:02:16.108Z,89.53
2019-05-16T08:04:46.720Z,89.84
2019-05-16T08:07:16.722Z,89.93
2019-05-16T08:09:47.443Z,90.17
2019-05-16T08:12:23.490Z,90.57
2019-05-16T08:14:52.960Z,90.55
2019-05-16T08:17:31.601Z,90.29
2019-05-16T08:20:10.961Z,90.51
2019-05-16T08:22:41.902Z,90.55
2019-05-16T08:25:14.563Z,90.64
2019-05-16T08:27:45.092Z,90.29
2019-05-16T08:30:15.972Z,90.11
2019-05-16T08:32:46.612Z,90.48
2019-05-16T08:35:17.219Z,90.59
2019-05-16T08:37:51.065Z,91.03
2019-05-16T08:40:21.267Z,91.25
2019-05-16T08:42:51.878Z,90.69
2019-05-16T08:45:23.483Z,90.54
2019-05-16T08:47:53.177Z,90.56
2019-05-16T08:50:23.458Z,90.60
2019-05-16T08:52:53.428Z,90.77
2019-05-16T08:55:23.116Z,90.88
2019-05-16T09:00:25.775Z,91.09
2019-05-16T09:02:56.397Z,91.60
2019-05-16T09:05:26.307Z,90.76
2019-05-16T09:10:26.157Z,90.49
2019-05-16T09:10:50.326Z,90.53
2019-05-16T09:12:59.580Z,90.26
2019-05-16T09:15:29.364Z,90.37
2019-05-16T09:17:59.170Z,90.70
2019-05-16T09:18:30.894Z,91.24
2019-05-16T09:20:31.161Z,91.00
2019-05-16T09:23:01.682Z,91.03
2019-05-16T09:25:32.191Z,90.50
2019-05-16T09:28:01.988Z,90.56
2019-05-16T09:30:32.439Z,90.02
2019-05-16T09:33:02.883Z,89.85
2019-05-16T09:35:32.785Z,90.64
2019-05-16T09:38:03.413Z,89.99
2019-05-16T09:40:33.754Z,90.07
2019-05-16T09:43:03.634Z,89.46
2019-05-16T09:45:33.366Z,88.65
2019-05-16T09:48:08.105Z,89.08
2019-05-16T09:50:38.315Z,88.34
2019-05-16T09:53:07.874Z,88.71
2019-05-16T09:55:37.888Z,88.57
2019-05-16T09:58:08.228Z,89.49
2019-05-16T10:00:38.650Z,89.42
2019-05-16T10:03:08.243Z,88.68
2019-05-16T10:05:38.780Z,86.38
2019-05-16T10:08:09.349Z,85.95
2019-05-16T10:10:39.400Z,86.55
2019-05-16T10:13:10.745Z,88.13
2019-05-16T10:15:40.546Z,86.25
2019-05-16T10:18:10.807Z,86.22
2019-05-16T10:20:41.034Z,88.31
2019-05-16T10:23:14.602Z,87.90
2019-05-16T10:25:44.253Z,88.19
2019-05-16T10:28:17.388Z,87.80
2019-05-16T10:30:50.171Z,88.20
2019-05-16T10:33:19.192Z,88.27
2019-05-16T10:35:49.343Z,87.23
2019-05-16T10:38:20.005Z,88.41
2019-05-16T10:40:51.694Z,88.14
2019-05-16T10:43:21.130Z,88.50
2019-05-16T10:45:54.111Z,88.24
2019-05-16T10:48:23.559Z,87.31
2019-05-16T10:50:53.970Z,87.50
2019-05-16T10:53:55.680Z,87.75
2019-05-16T10:55:57.983Z,87.00
2019-05-16T10:58:36.405Z,87.28
2019-05-16T11:01:22.381Z,86.90
2019-05-16T11:03:32.925Z,87.39
2019-05-16T11:06:06.055Z,87.37
2019-05-16T11:08:37.172Z,87.71
2019-05-16T11:11:06.695Z,87.51
2019-05-16T11:13:37.123Z,87.51
2019-05-16T11:16:10.451Z,87.12
2019-05-16T11:18:42.084Z,87.78
2019-05-16T11:21:12.003Z,87.33
2019-05-16T11:23:44.234Z,86.96
2019-05-16T11:26:14.938Z,86.95
2019-05-16T11:28:47.957Z,87.19
2019-05-16T11:31:17.656Z,87.11
2019-05-16T11:33:47.874Z,87.40
2019-05-16T11:36:17.607Z,87.42
2019-05-16T11:38:49.655Z,87.66
2019-05-16T11:41:20.999Z,87.74
2019-05-16T11:43:51.821Z,87.16
2019-05-16T11:46:21.469Z,88.58
2019-05-16T11:48:52.244Z,87.89
2019-05-16T11:51:21.749Z,87.93
2019-05-16T11:53:51.886Z,87.05
2019-05-16T11:56:22.292Z,87.81
2019-05-16T11:58:51.939Z,87.03
2019-05-16T12:01:21.907Z,86.45
2019-05-16T12:03:51.985Z,86.98
2019-05-16T12:06:22.276Z,86.89
2019-05-16T12:08:52.701Z,86.90
2019-05-16T12:11:22.514Z,86.60
2019-05-16T12:13:53.184Z,87.17
2019-05-16T12:16:23.204Z,86.79
2019-05-16T12:18:52.821Z,87.77
2019-05-16T12:21:23.103Z,87.81
2019-05-16T12:23:53.131Z,88.25
2019-05-16T12:26:23.980Z,87.80
2019-05-16T12:28:53.548Z,87.68
2019-05-16T12:31:23.905Z,86.79
2019-05-16T12:33:53.507Z,86.77
2019-05-16T12:36:26.619Z,87.50
2019-05-16T12:38:57.495Z,88.44
2019-05-16T12:41:28.681Z,88.31
2019-05-16T12:44:00.390Z,87.40
2019-05-16T12:46:30.146Z,86.71
2019-05-16T12:49:00.808Z,87.70
2019-05-16T12:51:30.749Z,88.02
2019-05-16T12:54:00.750Z,86.95
2019-05-16T12:56:30.645Z,87.01
2019-05-16T12:59:01.184Z,87.02
2019-05-16T13:01:34.195Z,87.72
2019-05-16T13:04:02.576Z,88.32
2019-05-16T13:06:33.299Z,88.54
2019-05-16T13:09:06.961Z,87.13
2019-05-16T13:11:37.781Z,87.39
2019-05-16T13:14:11.041Z,86.97
2019-05-16T13:16:39.316Z,87.46
2019-05-16T13:19:08.943Z,87.28
2019-05-16T13:21:39.363Z,87.62
2019-05-16T13:24:09.564Z,87.50
2019-05-16T13:26:39.641Z,88.21
2019-05-16T13:29:09.367Z,88.27
2019-05-16T13:31:39.138Z,87.88
2019-05-16T13:34:09.345Z,86.23
2019-05-16T13:36:39.270Z,86.03
2019-05-16T13:39:09.781Z,85.14
2019-05-16T13:41:39.418Z,84.44
2019-05-16T13:44:18.412Z,84.90
2019-05-16T13:46:40.228Z,84.25
2019-05-16T13:49:10.414Z,84.07
2019-05-16T13:51:40.089Z,84.54
2019-05-16T13:54:10.509Z,84.11
2019-05-16T13:56:40.109Z,82.95
2019-05-16T13:59:10.349Z,82.01
2019-05-16T14:01:41.224Z,82.62
2019-05-16T14:04:10.977Z,80.57
2019-05-16T14:06:41.853Z,81.99
2019-05-16T14:09:11.921Z,80.06
2019-05-16T14:11:41.475Z,80.99
2019-05-16T14:14:11.833Z,80.01
2019-05-16T14:16:41.601Z,79.83
2019-05-16T14:19:12.099Z,80.52
2019-05-16T14:21:41.530Z,80.58
2019-05-16T14:24:11.316Z,79.08
2019-05-16T14:26:42.059Z,79.55
2019-05-16T14:29:11.569Z,77.74
2019-05-16T14:31:42.367Z,77.32
2019-05-16T14:34:17.746Z,78.24
2019-05-16T14:36:47.398Z,78.07
2019-05-16T14:39:20.832Z,78.49
2019-05-16T14:41:50.252Z,77.82
2019-05-16T14:44:20.483Z,78.70
2019-05-16T14:46:51.043Z,77.82
2019-05-16T14:49:21.157Z,77.07
2019-05-16T14:51:50.764Z,77.44
2019-05-16T14:54:20.257Z,77.54
2019-05-16T14:56:50.061Z,76.91
2019-05-16T14:59:19.761Z,76.68
2019-05-16T15:01:50.030Z,76.42
2019-05-16T15:04:20.009Z,76.67
2019-05-16T15:06:49.656Z,77.22
2019-05-16T15:09:19.208Z,76.94
2019-05-16T15:11:48.880Z,76.65
2019-05-16T15:14:18.916Z,76.15
2019-05-16T15:16:52.200Z,76.22
2019-05-16T15:19:22.135Z,76.87
2019-05-16T15:21:52.119Z,76.90
2019-05-16T15:24:23.088Z,75.72
2019-05-16T15:26:53.329Z,75.76
2019-05-16T15:29:22.864Z,75.51
2019-05-16T15:31:52.983Z,75.66
2019-05-16T15:34:22.421Z,75.22
2019-05-16T15:36:53.068Z,75.71
2019-05-16T15:39:22.836Z,75.53
2019-05-16T15:41:53.164Z,75.39
2019-05-16T15:44:22.892Z,75.29
2019-05-16T15:46:52.461Z,74.48
2019-05-16T15:49:22.215Z,74.55
2019-05-16T15:51:52.137Z,75.14
2019-05-16T15:54:28.273Z,76.70
2019-05-16T15:56:55.983Z,75.95
2019-05-16T15:59:27.356Z,76.55
2019-05-16T16:01:57.267Z,76.42
2019-05-16T16:04:27.135Z,76.09
2019-05-16T16:06:56.901Z,75.75
2019-05-16T16:09:27.069Z,75.61
2019-05-16T16:11:56.817Z,75.65
2019-05-16T16:14:27.486Z,76.01
2019-05-16T16:16:59.715Z,75.67
2019-05-16T16:19:30.153Z,75.66
2019-05-16T16:22:00.217Z,76.06
2019-05-16T16:24:29.937Z,76.22
2019-05-16T16:27:01.595Z,76.44
2019-05-16T16:29:33.164Z,76.24
2019-05-16T16:32:03.102Z,76.07
2019-05-16T16:34:36.574Z,75.99
2019-05-16T16:37:07.559Z,76.42
2019-05-16T16:39:37.917Z,76.40
2019-05-16T16:42:08.550Z,76.08
2019-05-16T16:44:38.161Z,76.07
2019-05-16T16:47:07.796Z,76.52
2019-05-16T16:49:40.099Z,76.94
2019-05-16T16:52:11.044Z,76.83
2019-05-16T16:54:40.711Z,76.61
2019-05-16T16:57:11.376Z,76.60
2019-05-16T16:59:41.424Z,76.93
2019-05-16T17:02:11.677Z,77.20
2019-05-16T17:04:41.899Z,77.35
2019-05-16T17:07:11.760Z,77.43
2019-05-16T17:09:41.829Z,77.78
2019-05-16T17:12:11.610Z,78.07
2019-05-16T17:14:41.510Z,78.11
2019-05-16T17:17:12.232Z,78.46
2019-05-16T17:19:43.505Z,79.18
2019-05-16T17:22:19.927Z,79.21
2019-05-16T17:24:47.299Z,79.57
2019-05-16T17:27:18.253Z,79.74
2019-05-16T17:29:48.172Z,80.56
2019-05-16T17:32:18.713Z,80.94
2019-05-16T17:34:48.415Z,81.07
2019-05-16T17:37:17.857Z,81.73
2019-05-16T17:39:50.276Z,82.12
2019-05-16T17:42:19.690Z,82.42
2019-05-16T17:44:49.117Z,82.94
2019-05-16T17:47:18.940Z,82.55
2019-05-16T17:49:48.508Z,82.69
2019-05-16T17:52:18.169Z,83.38
2019-05-16T17:54:48.106Z,83.06
2019-05-16T17:57:18.052Z,83.02
2019-05-16T17:59:48.162Z,83.27
2019-05-16T18:02:17.830Z,83.44
2019-05-16T18:04:47.818Z,83.10
2019-05-16T18:07:18.322Z,83.07
2019-05-16T18:09:48.465Z,82.95
2019-05-16T18:12:18.993Z,82.56
2019-05-16T18:14:50.471Z,82.98
2019-05-16T18:17:21.334Z,82.95
2019-05-16T18:19:50.844Z,83.46
2019-05-16T18:22:20.656Z,83.68
2019-05-16T18:24:51.017Z,84.41
2019-05-16T18:27:22.727Z,84.68
2019-05-16T18:29:52.803Z,84.44
2019-05-16T18:32:22.922Z,84.65
2019-05-16T18:34:56.434Z,84.85
2019-05-16T18:37:26.611Z,85.36
2019-05-16T18:39:56.555Z,85.58
2019-05-16T18:42:27.584Z,85.62
2019-05-16T18:44:57.655Z,85.64
2019-05-16T18:47:28.335Z,85.66
2019-05-16T18:49:58.191Z,85.64
2019-05-16T18:52:27.645Z,85.40
2019-05-16T18:54:57.611Z,85.46
2019-05-16T18:57:27.885Z,85.67
2019-05-16T18:59:58.957Z,85.55
2019-05-16T19:02:32.585Z,85.57
2019-05-16T19:05:06.760Z,85.22
2019-05-16T19:07:36.921Z,85.10
2019-05-16T19:10:07.997Z,85.12
2019-05-16T19:12:38.217Z,85.18
2019-05-16T19:15:11.789Z,85.21
2019-05-16T19:17:42.820Z,85.06
2019-05-16T19:20:12.225Z,84.45
2019-05-16T19:22:42.923Z,84.74
2019-05-16T19:25:13.434Z,85.16
2019-05-16T19:27:43.230Z,85.29
2019-05-16T19:30:16.847Z,85.35
2019-05-16T19:32:47.007Z,85.41
2019-05-16T19:35:18.170Z,85.52
2019-05-16T19:37:48.128Z,85.42
2019-05-16T19:40:19.209Z,84.94
2019-05-16T19:42:49.008Z,84.72
2019-05-16T19:45:19.062Z,84.55
2019-05-16T19:47:49.246Z,84.57
2019-05-16T19:50:19.373Z,84.36
2019-05-16T19:52:48.827Z,84.63
2019-05-16T19:55:18.487Z,84.33
2019-05-16T19:57:48.356Z,84.68
2019-05-16T20:00:20.231Z,84.75
2019-05-16T20:02:50.708Z,84.83
2019-05-16T20:05:20.897Z,84.44
2019-05-16T20:07:51.469Z,84.33
2019-05-16T20:10:20.873Z,84.35
2019-05-16T20:12:51.272Z,84.49
2019-05-16T20:15:21.940Z,84.42
2019-05-16T20:17:55.164Z,84.27
2019-05-16T20:20:22.874Z,84.36
2019-05-16T20:22:53.340Z,84.42
2019-05-16T20:25:23.091Z,84.59
2019-05-16T20:27:52.779Z,84.63
2019-05-16T20:30:23.385Z,84.77
2019-05-16T20:32:52.876Z,85.06
2019-05-16T20:35:23.065Z,85.02
2019-05-16T20:37:53.099Z,85.15
2019-05-16T20:40:23.359Z,85.09
2019-05-16T20:42:53.271Z,85.22
2019-05-16T20:45:23.205Z,85.19
2019-05-16T20:48:07.356Z,85.46
2019-05-16T20:50:26.236Z,85.65
2019-05-16T20:52:57.285Z,86.21
2019-05-16T20:55:27.538Z,86.62
2019-05-16T20:57:57.543Z,87.79
2019-05-16T21:00:28.159Z,88.17
2019-05-16T21:02:58.277Z,88.78
2019-05-16T21:05:27.610Z,88.12
2019-05-16T21:07:58.815Z,87.69
2019-05-16T21:10:28.709Z,87.07
2019-05-16T21:12:59.151Z,87.61
2019-05-16T21:15:29.406Z,86.98
2019-05-16T21:17:59.009Z,86.93
2019-05-16T21:20:29.902Z,86.39
2019-05-16T21:23:01.676Z,87.05
2019-05-16T21:25:31.227Z,87.65
2019-05-16T21:28:01.648Z,87.79
2019-05-16T21:30:32.033Z,88.15
2019-05-16T21:33:02.518Z,88.87
2019-05-16T21:35:32.833Z,88.49
2019-05-16T21:38:03.478Z,89.30
2019-05-16T21:40:33.157Z,89.58
2019-05-16T21:43:02.818Z,89.76
2019-05-16T21:45:33.386Z,89.79
2019-05-16T21:48:03.713Z,88.66
2019-05-16T21:50:33.623Z,88.39
2019-05-16T21:53:03.695Z,88.20
2019-05-16T21:55:33.798Z,88.36
2019-05-16T21:58:03.389Z,88.21
2019-05-16T22:00:38.645Z,88.30
2019-05-16T22:03:08.275Z,88.35
2019-05-16T22:05:38.676Z,88.33
2019-05-16T22:08:11.568Z,88.66
2019-05-16T22:10:40.180Z,88.67
2019-05-16T22:13:09.946Z,88.67
2019-05-16T22:15:39.909Z,89.05
2019-05-16T22:18:09.366Z,89.07
2019-05-16T22:20:39.353Z,89.12
2019-05-16T22:23:09.211Z,89.13
2019-05-16T22:25:39.183Z,89.29
2019-05-16T22:28:08.882Z,89.28
2019-05-16T22:30:38.546Z,89.11
2019-05-16T22:33:09.260Z,88.91
2019-05-16T22:35:38.854Z,88.79
2019-05-16T22:38:08.366Z,88.81
2019-05-16T22:40:38.470Z,88.64
2019-05-16T22:43:11.587Z,88.35
2019-05-16T22:45:41.180Z,88.54
2019-05-16T22:48:11.282Z,88.54
2019-05-16T22:50:41.730Z,88.56
2019-05-16T22:53:11.561Z,88.57
2019-05-16T22:55:41.663Z,88.56
2019-05-16T22:58:11.678Z,88.53
2019-05-16T23:00:42.083Z,88.32
2019-05-16T23:06:41.406Z,88.35
2019-05-16T23:09:11.071Z,88.30
2019-05-16T23:11:40.718Z,88.21
2019-05-16T23:14:11.330Z,88.35
2019-05-16T23:16:42.056Z,88.40
2019-05-16T23:19:18.154Z,88.20
2019-05-16T23:21:47.752Z,88.20
2019-05-16T23:24:17.508Z,88.17
2019-05-16T23:26:47.144Z,88.09
2019-05-16T23:29:17.187Z,87.96
2019-05-16T23:31:47.395Z,87.78
2019-05-16T23:34:18.779Z,87.39
2019-05-16T23:36:49.956Z,87.41
2019-05-16T23:39:20.129Z,87.64
2019-05-16T23:41:52.499Z,87.69
2019-05-16T23:44:22.203Z,87.77
2019-05-16T23:46:53.068Z,87.72
2019-05-16T23:49:24.694Z,87.68
2019-05-16T23:51:56.672Z,87.51
2019-05-16T23:54:27.817Z,87.78
2019-05-16T23:57:23.043Z,87.72
2019-05-16T23:59:53.196Z,87.63
